createdAt,value
2023-05-20T00:01:41.129Z,12.60
2023-05-20T00:04:08.482Z,12.64
2023-05-20T00:06:35.297Z,12.61
2023-05-20T00:09:02.106Z,12.64
2023-05-20T00:11:28.810Z,12.57
2023-05-20T00:13:55.617Z,12.53
2023-05-20T00:16:22.300Z,12.54
2023-05-20T00:18:49.011Z,12.40
2023-05-20T00:21:15.791Z,12.47
2023-05-20T00:23:42.603Z,12.44
2023-05-20T00:26:09.318Z,12.43
2023-05-20T00:28:35.979Z,12.32
2023-05-20T00:31:02.764Z,12.31
2023-05-20T00:33:29.371Z,12.38
2023-05-20T00:35:56.037Z,12.39
2023-05-20T00:38:22.740Z,12.44
2023-05-20T00:40:49.438Z,12.38
2023-05-20T00:43:16.148Z,12.33
2023-05-20T00:45:42.930Z,12.45
2023-05-20T00:48:09.931Z,12.48
2023-05-20T00:50:36.725Z,12.48
2023-05-20T00:53:04.036Z,12.47
2023-05-20T00:55:30.936Z,12.47
2023-05-20T00:57:57.897Z,12.44
2023-05-20T01:00:24.580Z,12.45
2023-05-20T01:02:51.736Z,12.45
2023-05-20T01:05:18.505Z,12.44
2023-05-20T01:07:45.242Z,12.46
2023-05-20T01:10:12.016Z,12.37
2023-05-20T01:13:01.695Z,12.38
2023-05-20T01:15:30.239Z,12.40
2023-05-20T01:18:01.593Z,12.39
2023-05-20T01:20:32.664Z,12.28
2023-05-20T01:22:59.549Z,12.26
2023-05-20T01:25:26.571Z,12.30
2023-05-20T01:27:55.855Z,12.27
2023-05-20T01:30:24.053Z,12.23
2023-05-20T01:32:59.998Z,12.26
2023-05-20T01:35:27.562Z,12.27
2023-05-20T01:37:56.052Z,12.30
2023-05-20T01:40:24.694Z,12.29
2023-05-20T01:42:55.283Z,12.24
2023-05-20T01:45:24.026Z,12.16
2023-05-20T01:47:50.862Z,12.10
2023-05-20T01:50:17.697Z,12.09
2023-05-20T01:52:44.424Z,12.15
2023-05-20T01:55:11.163Z,12.16
2023-05-20T01:57:37.874Z,12.21
2023-05-20T02:00:06.267Z,12.16
2023-05-20T02:02:33.109Z,12.09
2023-05-20T02:04:59.880Z,12.08
2023-05-20T02:07:26.534Z,12.15
2023-05-20T02:09:53.183Z,12.12
2023-05-20T02:12:19.905Z,12.06
2023-05-20T02:14:48.011Z,12.00
2023-05-20T02:17:16.617Z,12.01
2023-05-20T02:19:47.277Z,12.01
2023-05-20T02:22:14.640Z,12.04
2023-05-20T02:24:43.264Z,12.01
2023-05-20T02:27:10.118Z,11.99
2023-05-20T02:29:37.050Z,12.01
2023-05-20T02:32:03.950Z,12.00
2023-05-20T02:34:32.960Z,11.95
2023-05-20T02:36:59.861Z,11.97
2023-05-20T02:39:26.640Z,11.95
2023-05-20T02:41:53.268Z,11.86
2023-05-20T02:44:20.310Z,11.84
2023-05-20T02:46:47.088Z,11.81
2023-05-20T02:49:13.724Z,11.83
2023-05-20T02:51:41.024Z,11.89
2023-05-20T02:54:07.687Z,11.82
2023-05-20T02:56:34.441Z,11.81
2023-05-20T02:59:01.602Z,11.78
2023-05-20T03:01:29.230Z,11.81
2023-05-20T03:03:56.024Z,11.87
2023-05-20T03:06:26.346Z,11.79
2023-05-20T03:08:52.954Z,11.84
2023-05-20T03:11:19.609Z,11.82
2023-05-20T03:13:46.182Z,11.71
2023-05-20T03:16:13.344Z,11.71
2023-05-20T03:18:40.108Z,11.69
2023-05-20T03:21:06.809Z,11.74
2023-05-20T03:23:33.460Z,11.70
2023-05-20T03:26:00.158Z,11.66
2023-05-20T03:28:26.874Z,11.60
2023-05-20T03:30:53.618Z,11.63
2023-05-20T03:33:20.720Z,11.68
2023-05-20T03:35:47.404Z,11.50
2023-05-20T03:38:14.055Z,11.45
2023-05-20T03:40:40.902Z,11.47
2023-05-20T03:43:07.615Z,11.47
2023-05-20T03:45:34.725Z,11.49
2023-05-20T03:48:03.584Z,11.50
2023-05-20T03:50:31.242Z,11.44
2023-05-20T03:52:58.071Z,11.37
2023-05-20T03:55:25.120Z,11.37
2023-05-20T03:57:51.780Z,11.37
2023-05-20T04:00:18.715Z,11.39
2023-05-20T04:02:45.781Z,11.35
2023-05-20T04:05:12.693Z,11.28
2023-05-20T04:07:39.400Z,11.29
2023-05-20T04:10:06.968Z,11.25
2023-05-20T04:12:33.982Z,11.26
2023-05-20T04:15:01.759Z,11.32
2023-05-20T04:17:31.696Z,11.40
2023-05-20T04:19:59.967Z,11.44
2023-05-20T04:22:27.507Z,11.46
2023-05-20T04:24:54.240Z,11.48
2023-05-20T04:27:21.754Z,11.53
2023-05-20T04:29:48.573Z,11.59
2023-05-20T04:32:18.847Z,11.64
2023-05-20T04:34:46.808Z,11.68
2023-05-20T04:37:14.077Z,11.71
2023-05-20T04:39:40.821Z,11.61
2023-05-20T04:42:07.649Z,11.61
2023-05-20T04:44:34.531Z,11.59
2023-05-20T04:47:01.407Z,11.59
2023-05-20T04:49:29.984Z,11.58
2023-05-20T04:51:56.632Z,11.51
2023-05-20T04:54:23.431Z,11.50
2023-05-20T04:56:51.103Z,11.65
2023-05-20T04:59:17.982Z,11.64
2023-05-20T05:01:44.720Z,11.61
2023-05-20T05:04:11.692Z,11.53
2023-05-20T05:06:38.494Z,11.49
2023-05-20T05:09:05.181Z,11.45
2023-05-20T05:11:31.846Z,11.38
2023-05-20T05:13:58.537Z,11.41
2023-05-20T05:16:25.476Z,11.38
2023-05-20T05:18:52.244Z,11.34
2023-05-20T05:21:18.902Z,11.40
2023-05-20T05:23:46.092Z,11.44
2023-05-20T05:26:12.756Z,11.44
2023-05-20T05:28:42.041Z,11.36
2023-05-20T05:31:08.795Z,11.36
2023-05-20T05:33:35.541Z,11.36
2023-05-20T05:36:02.716Z,11.31
2023-05-20T05:38:29.405Z,11.32
2023-05-20T05:40:56.355Z,11.38
2023-05-20T05:43:23.075Z,11.45
2023-05-20T05:45:49.756Z,11.48
2023-05-20T05:48:16.464Z,11.48
2023-05-20T05:50:46.996Z,11.47
2023-05-20T05:53:13.722Z,11.49
2023-05-20T05:55:40.383Z,11.43
2023-05-20T05:58:07.228Z,11.36
2023-05-20T06:00:33.974Z,11.36
2023-05-20T06:03:00.893Z,11.28
2023-05-20T06:05:29.276Z,11.26
2023-05-20T06:07:56.657Z,11.23
2023-05-20T06:10:23.491Z,11.20
2023-05-20T06:12:50.295Z,11.17
2023-05-20T06:15:16.975Z,11.09
2023-05-20T06:17:43.622Z,11.19
2023-05-20T06:20:10.640Z,11.16
2023-05-20T06:22:37.582Z,11.03
2023-05-20T06:25:04.463Z,11.03
2023-05-20T06:27:31.181Z,11.09
2023-05-20T06:29:57.841Z,11.12
2023-05-20T06:32:24.627Z,10.98
2023-05-20T06:34:51.486Z,11.01
2023-05-20T06:37:18.286Z,11.08
2023-05-20T06:39:46.930Z,11.08
2023-05-20T06:42:13.591Z,11.04
2023-05-20T06:44:40.212Z,11.00
2023-05-20T06:47:06.869Z,11.06
2023-05-20T06:49:33.578Z,11.09
2023-05-20T06:52:00.233Z,11.13
2023-05-20T06:54:26.864Z,11.17
2023-05-20T06:56:53.587Z,11.09
2023-05-20T06:59:20.237Z,11.17
2023-05-20T07:01:46.860Z,11.14
2023-05-20T07:04:13.557Z,11.14
2023-05-20T07:06:40.182Z,11.13
2023-05-20T07:09:07.148Z,11.22
2023-05-20T07:11:33.757Z,11.23
2023-05-20T07:14:00.532Z,11.18
2023-05-20T07:16:27.235Z,11.28
2023-05-20T07:18:54.019Z,11.18
2023-05-20T07:21:20.737Z,11.25
2023-05-20T07:23:47.393Z,11.29
2023-05-20T07:26:14.052Z,11.19
2023-05-20T07:28:40.856Z,11.19
2023-05-20T07:31:07.472Z,11.18
2023-05-20T07:33:34.219Z,11.17
2023-05-20T07:36:00.892Z,11.16
2023-05-20T07:38:27.564Z,11.22
2023-05-20T07:40:54.189Z,11.23
2023-05-20T07:43:21.011Z,11.19
2023-05-20T07:45:47.708Z,11.14
2023-05-20T07:48:14.541Z,11.29
2023-05-20T07:50:41.528Z,11.24
2023-05-20T07:53:08.410Z,11.16
2023-05-20T07:55:37.029Z,11.29
2023-05-20T07:58:04.290Z,11.25
2023-05-20T08:00:31.547Z,11.26
2023-05-20T08:02:58.410Z,11.33
2023-05-20T08:05:25.161Z,11.41
2023-05-20T08:07:51.874Z,11.41
2023-05-20T08:10:18.619Z,11.36
2023-05-20T08:12:46.610Z,11.45
2023-05-20T08:15:13.334Z,11.47
2023-05-20T08:17:40.066Z,11.53
2023-05-20T08:20:08.338Z,11.54
2023-05-20T08:22:36.191Z,11.41
2023-05-20T08:25:02.980Z,11.46
2023-05-20T08:27:29.650Z,11.50
2023-05-20T08:29:57.246Z,11.59
2023-05-20T08:32:24.853Z,11.66
2023-05-20T08:34:51.569Z,11.79
2023-05-20T08:37:18.294Z,11.61
2023-05-20T08:39:46.741Z,11.71
2023-05-20T08:42:13.858Z,11.69
2023-05-20T08:44:41.597Z,11.71
2023-05-20T08:47:10.414Z,11.84
2023-05-20T08:49:37.831Z,11.83
2023-05-20T08:52:05.535Z,11.93
2023-05-20T08:54:45.368Z,12.02
2023-05-20T08:57:14.113Z,12.01
2023-05-20T08:59:45.408Z,11.97
2023-05-20T09:02:12.385Z,12.08
2023-05-20T09:04:39.457Z,12.21
2023-05-20T09:07:06.312Z,12.29
2023-05-20T09:09:35.104Z,12.27
2023-05-20T09:12:03.252Z,12.34
2023-05-20T09:14:31.281Z,12.37
2023-05-20T09:16:58.116Z,12.45
2023-05-20T09:19:25.604Z,12.55
2023-05-20T09:21:55.625Z,12.62
2023-05-20T09:24:26.966Z,12.58
2023-05-20T09:26:53.837Z,12.55
2023-05-20T09:29:21.928Z,12.60
2023-05-20T09:31:50.053Z,12.64
2023-05-20T09:34:17.593Z,12.63
2023-05-20T09:36:45.334Z,12.73
2023-05-20T09:39:17.043Z,12.73
2023-05-20T09:41:57.959Z,12.82
2023-05-20T09:44:25.144Z,12.90
2023-05-20T09:46:53.345Z,13.02
2023-05-20T09:49:21.582Z,13.19
2023-05-20T09:51:48.638Z,13.25
2023-05-20T09:54:18.128Z,13.31
2023-05-20T09:56:45.322Z,13.28
2023-05-20T09:59:12.934Z,13.28
2023-05-20T10:01:39.661Z,13.36
2023-05-20T10:04:09.199Z,13.30
2023-05-20T10:06:38.815Z,13.38
2023-05-20T10:09:19.964Z,13.37
2023-05-20T10:12:09.734Z,13.39
2023-05-20T10:14:43.939Z,13.30
2023-05-20T10:17:14.855Z,13.32
2023-05-20T10:19:41.739Z,13.32
2023-05-20T10:22:10.340Z,13.29
2023-05-20T10:24:43.051Z,13.36
2023-05-20T10:27:18.269Z,13.23
2023-05-20T10:29:52.384Z,13.32
2023-05-20T10:32:33.429Z,13.33
2023-05-20T10:35:05.952Z,13.35
2023-05-20T10:37:40.667Z,13.37
2023-05-20T10:40:12.669Z,13.50
2023-05-20T10:42:40.296Z,13.51
2023-05-20T10:45:08.338Z,13.52
2023-05-20T10:47:35.834Z,13.55
2023-05-20T10:50:04.998Z,13.56
2023-05-20T10:52:39.172Z,13.60
2023-05-20T10:55:06.406Z,13.67
2023-05-20T10:57:34.506Z,13.68
2023-05-20T11:00:01.362Z,13.58
2023-05-20T11:02:29.122Z,13.58
2023-05-20T11:04:59.133Z,13.63
2023-05-20T11:07:29.954Z,13.64
2023-05-20T11:09:57.560Z,13.67
2023-05-20T11:12:25.928Z,13.74
2023-05-20T11:14:53.008Z,13.78
2023-05-20T11:17:20.264Z,13.62
2023-05-20T11:19:48.380Z,13.56
2023-05-20T11:22:15.060Z,13.60
2023-05-20T11:24:41.708Z,13.74
2023-05-20T11:27:08.472Z,13.93
2023-05-20T11:29:35.395Z,14.04
2023-05-20T11:32:02.354Z,13.96
2023-05-20T11:34:36.839Z,13.97
2023-05-20T11:37:07.960Z,14.18
2023-05-20T11:39:34.733Z,14.33
2023-05-20T11:42:01.416Z,14.41
2023-05-20T11:44:28.204Z,14.43
2023-05-20T11:47:03.744Z,14.53
2023-05-20T11:49:31.214Z,14.59
2023-05-20T11:51:58.205Z,14.66
2023-05-20T11:54:24.903Z,14.61
2023-05-20T11:56:51.723Z,14.76
2023-05-20T11:59:18.492Z,14.80
2023-05-20T12:01:45.741Z,14.78
2023-05-20T12:04:16.586Z,14.83
2023-05-20T12:06:44.131Z,14.84
2023-05-20T12:09:11.851Z,14.91
2023-05-20T12:11:41.305Z,14.92
2023-05-20T12:14:09.061Z,14.91
2023-05-20T12:16:36.777Z,14.92
2023-05-20T12:19:04.240Z,14.94
2023-05-20T12:21:31.575Z,14.85
2023-05-20T12:24:01.257Z,14.89
2023-05-20T12:26:29.682Z,14.97
2023-05-20T12:28:56.603Z,15.08
2023-05-20T12:31:23.632Z,15.11
2023-05-20T12:33:50.835Z,15.26
2023-05-20T12:36:17.651Z,15.36
2023-05-20T12:38:44.501Z,15.42
2023-05-20T12:41:11.325Z,15.36
2023-05-20T12:43:38.108Z,15.47
2023-05-20T12:46:05.135Z,15.34
2023-05-20T12:48:32.044Z,15.29
2023-05-20T12:50:58.809Z,15.21
2023-05-20T12:53:25.569Z,15.25
2023-05-20T12:55:52.550Z,15.28
2023-05-20T12:58:19.287Z,15.36
2023-05-20T13:00:46.128Z,15.34
2023-05-20T13:03:12.788Z,15.46
2023-05-20T13:05:39.568Z,15.54
2023-05-20T13:08:06.355Z,15.61
2023-05-20T13:10:33.652Z,15.42
2023-05-20T13:13:00.446Z,15.50
2023-05-20T13:15:27.102Z,15.36
2023-05-20T13:17:54.439Z,15.38
2023-05-20T13:20:21.632Z,15.48
2023-05-20T13:22:50.188Z,15.54
2023-05-20T13:25:17.171Z,15.55
2023-05-20T13:27:43.945Z,15.52
2023-05-20T13:30:10.966Z,15.49
2023-05-20T13:32:37.752Z,15.49
2023-05-20T13:35:05.053Z,15.68
2023-05-20T13:37:31.800Z,15.64
2023-05-20T13:39:58.528Z,15.63
2023-05-20T13:42:25.147Z,15.73
2023-05-20T13:44:51.788Z,15.82
2023-05-20T13:47:18.476Z,15.84
2023-05-20T13:49:45.182Z,15.81
2023-05-20T13:52:11.830Z,15.83
2023-05-20T13:54:38.554Z,15.86
2023-05-20T13:57:08.028Z,15.82
2023-05-20T13:59:35.211Z,15.77
2023-05-20T14:02:02.470Z,15.77
2023-05-20T14:04:31.339Z,15.77
2023-05-20T14:06:59.312Z,15.69
2023-05-20T14:09:26.462Z,15.79
2023-05-20T14:11:53.213Z,15.86
2023-05-20T14:14:19.862Z,15.70
2023-05-20T14:16:46.617Z,15.65
2023-05-20T14:19:13.330Z,15.70
2023-05-20T14:21:40.132Z,15.61
2023-05-20T14:24:07.052Z,15.65
2023-05-20T14:26:34.336Z,15.63
2023-05-20T14:29:01.226Z,15.50
2023-05-20T14:31:27.969Z,15.53
2023-05-20T14:33:54.654Z,15.56
2023-05-20T14:36:21.339Z,15.66
2023-05-20T14:38:49.620Z,15.65
2023-05-20T14:41:16.590Z,15.54
2023-05-20T14:43:43.260Z,15.71
2023-05-20T14:46:10.648Z,15.83
2023-05-20T14:48:37.474Z,15.90
2023-05-20T14:51:04.347Z,15.95
2023-05-20T14:53:31.045Z,15.85
2023-05-20T14:55:57.886Z,15.94
2023-05-20T14:58:24.555Z,15.95
2023-05-20T15:00:53.184Z,15.98
2023-05-20T15:03:20.472Z,16.03
2023-05-20T15:05:47.243Z,15.94
2023-05-20T15:08:13.882Z,16.08
2023-05-20T15:10:40.616Z,16.21
2023-05-20T15:13:07.468Z,16.38
2023-05-20T15:15:34.257Z,16.32
2023-05-20T15:18:01.272Z,16.24
2023-05-20T15:20:27.955Z,16.30
2023-05-20T15:22:54.697Z,16.30
2023-05-20T15:25:21.393Z,16.47
2023-05-20T15:27:48.317Z,16.46
2023-05-20T15:30:15.699Z,16.48
2023-05-20T15:32:42.925Z,16.60
2023-05-20T15:35:09.942Z,16.72
2023-05-20T15:37:36.605Z,16.91
2023-05-20T15:40:04.531Z,16.86
2023-05-20T15:42:31.910Z,17.03
2023-05-20T15:44:58.678Z,17.14
2023-05-20T15:47:25.966Z,17.14
2023-05-20T15:49:54.495Z,17.27
2023-05-20T15:52:21.212Z,17.40
2023-05-20T15:54:47.870Z,17.36
2023-05-20T15:57:14.512Z,17.49
2023-05-20T15:59:41.468Z,17.59
2023-05-20T16:02:08.130Z,17.65
2023-05-20T16:04:34.877Z,17.70
2023-05-20T16:07:01.928Z,17.66
2023-05-20T16:09:28.565Z,17.67
2023-05-20T16:11:56.123Z,17.69
2023-05-20T16:14:22.767Z,17.73
2023-05-20T16:16:49.535Z,17.64
2023-05-20T16:19:16.259Z,17.72
2023-05-20T16:21:43.017Z,17.78
2023-05-20T16:24:09.912Z,17.82
2023-05-20T16:26:36.695Z,17.72
2023-05-20T16:29:03.601Z,17.82
2023-05-20T16:31:30.230Z,17.81
2023-05-20T16:33:57.544Z,17.76
2023-05-20T16:36:24.448Z,17.80
2023-05-20T16:38:51.086Z,17.77
2023-05-20T16:41:17.835Z,17.75
2023-05-20T16:43:44.627Z,17.71
2023-05-20T16:46:12.836Z,17.59
2023-05-20T16:48:39.892Z,17.62
2023-05-20T16:51:06.874Z,17.57
2023-05-20T16:53:33.553Z,17.51
2023-05-20T16:56:00.332Z,17.61
2023-05-20T16:58:26.981Z,17.57
2023-05-20T17:00:55.106Z,17.54
2023-05-20T17:03:22.101Z,17.65
2023-05-20T17:05:48.846Z,17.60
2023-05-20T17:08:16.109Z,17.59
2023-05-20T17:10:42.782Z,17.67
2023-05-20T17:13:09.515Z,17.63
2023-05-20T17:15:37.327Z,17.67
2023-05-20T17:18:04.415Z,17.70
2023-05-20T17:20:31.627Z,17.68
2023-05-20T17:22:58.543Z,17.79
2023-05-20T17:25:25.564Z,17.80
2023-05-20T17:27:52.289Z,17.88
2023-05-20T17:30:19.073Z,17.82
2023-05-20T17:32:45.963Z,17.76
2023-05-20T17:35:12.694Z,17.79
2023-05-20T17:37:39.509Z,17.83
2023-05-20T17:40:06.741Z,17.80
2023-05-20T17:42:33.810Z,17.80
2023-05-20T17:45:00.474Z,17.78
2023-05-20T17:47:27.109Z,17.77
2023-05-20T17:49:53.728Z,17.79
2023-05-20T17:52:20.376Z,17.73
2023-05-20T17:54:47.011Z,17.71
2023-05-20T17:57:13.810Z,17.69
2023-05-20T17:59:42.029Z,17.76
2023-05-20T18:02:09.054Z,17.71
2023-05-20T18:04:35.891Z,17.71
2023-05-20T18:07:04.121Z,17.63
2023-05-20T18:09:31.135Z,17.69
2023-05-20T18:11:57.840Z,17.66
2023-05-20T18:14:26.621Z,17.60
2023-05-20T18:16:57.544Z,17.59
2023-05-20T18:19:24.787Z,17.62
2023-05-20T18:21:51.874Z,17.63
2023-05-20T18:24:20.457Z,17.62
2023-05-20T18:26:47.374Z,17.55
2023-05-20T18:29:14.108Z,17.52
2023-05-20T18:31:43.373Z,17.53
2023-05-20T18:34:10.791Z,17.52
2023-05-20T18:36:37.758Z,17.50
2023-05-20T18:39:04.854Z,17.44
2023-05-20T18:41:43.063Z,17.49
2023-05-20T18:44:14.750Z,17.46
2023-05-20T18:46:41.741Z,17.43
2023-05-20T18:49:10.334Z,17.45
2023-05-20T18:51:40.413Z,17.42
2023-05-20T18:54:07.471Z,17.43
2023-05-20T18:56:34.439Z,17.42
2023-05-20T18:59:01.317Z,17.41
2023-05-20T19:01:28.141Z,17.37
2023-05-20T19:03:54.805Z,17.32
2023-05-20T19:06:22.112Z,17.22
2023-05-20T19:08:49.626Z,17.13
2023-05-20T19:11:16.865Z,17.14
2023-05-20T19:13:43.584Z,17.07
2023-05-20T19:16:10.685Z,17.10
2023-05-20T19:18:37.392Z,17.08
2023-05-20T19:21:04.417Z,17.12
2023-05-20T19:23:32.435Z,17.10
2023-05-20T19:25:59.204Z,17.03
2023-05-20T19:28:25.950Z,17.02
2023-05-20T19:30:52.997Z,17.00
2023-05-20T19:33:20.908Z,17.02
2023-05-20T19:35:47.535Z,16.94
2023-05-20T19:38:14.454Z,16.94
2023-05-20T19:40:41.151Z,16.94
2023-05-20T19:43:07.838Z,16.88
2023-05-20T19:45:36.602Z,16.85
2023-05-20T19:48:04.405Z,16.87
2023-05-20T19:50:31.632Z,16.83
2023-05-20T19:52:58.261Z,16.82
2023-05-20T19:55:24.946Z,16.72
2023-05-20T19:57:54.338Z,16.74
2023-05-20T20:00:21.612Z,16.56
2023-05-20T20:02:49.786Z,16.54
2023-05-20T20:05:16.598Z,16.53
2023-05-20T20:07:43.300Z,16.43
2023-05-20T20:10:10.726Z,16.45
2023-05-20T20:12:37.452Z,16.38
2023-05-20T20:15:04.484Z,16.32
2023-05-20T20:17:33.600Z,16.35
2023-05-20T20:20:00.935Z,16.17
2023-05-20T20:22:27.714Z,16.16
2023-05-20T20:24:54.345Z,16.12
2023-05-20T20:27:23.648Z,16.14
2023-05-20T20:29:50.270Z,16.03
2023-05-20T20:32:17.062Z,16.02
2023-05-20T20:34:43.849Z,16.00
2023-05-20T20:37:14.621Z,15.99
2023-05-20T20:39:41.290Z,15.96
2023-05-20T20:42:07.894Z,15.98
2023-05-20T20:44:34.605Z,16.03
2023-05-20T20:47:04.050Z,15.95
2023-05-20T20:49:32.194Z,15.88
2023-05-20T20:51:59.224Z,15.83
2023-05-20T20:54:26.526Z,15.64
2023-05-20T20:56:56.570Z,15.69
2023-05-20T20:59:26.989Z,15.58
2023-05-20T21:01:54.749Z,15.48
2023-05-20T21:04:21.622Z,15.44
2023-05-20T21:06:48.388Z,15.46
2023-05-20T21:09:15.607Z,15.49
2023-05-20T21:11:42.581Z,15.56
2023-05-20T21:14:09.700Z,15.56
2023-05-20T21:16:36.431Z,15.52
2023-05-20T21:19:03.377Z,15.41
2023-05-20T21:21:30.934Z,15.42
2023-05-20T21:23:57.957Z,15.43
2023-05-20T21:26:25.747Z,15.40
2023-05-20T21:28:52.836Z,15.41
2023-05-20T21:31:19.700Z,15.39
2023-05-20T21:33:46.643Z,15.34
2023-05-20T21:36:13.472Z,15.28
2023-05-20T21:38:40.165Z,15.26
2023-05-20T21:41:07.048Z,15.28
2023-05-20T21:43:33.729Z,15.23
2023-05-20T21:46:00.597Z,15.22
2023-05-20T21:48:27.288Z,15.21
2023-05-20T21:50:53.990Z,15.19
2023-05-20T21:53:20.679Z,15.25
2023-05-20T21:55:47.372Z,15.28
2023-05-20T21:58:14.101Z,15.33
2023-05-20T22:00:41.100Z,15.34
2023-05-20T22:03:07.875Z,15.41
2023-05-20T22:05:34.888Z,15.40
2023-05-20T22:08:01.947Z,15.37
2023-05-20T22:10:28.762Z,15.40
2023-05-20T22:12:55.678Z,15.37
2023-05-20T22:15:23.077Z,15.38
2023-05-20T22:17:49.819Z,15.37
2023-05-20T22:20:16.675Z,15.37
2023-05-20T22:22:43.356Z,15.31
2023-05-20T22:25:10.912Z,15.29
2023-05-20T22:27:38.718Z,15.32
2023-05-20T22:30:08.247Z,15.31
2023-05-20T22:32:34.998Z,15.30
2023-05-20T22:35:01.705Z,15.25
2023-05-20T22:37:28.962Z,15.26
2023-05-20T22:39:56.373Z,15.21
2023-05-20T22:42:22.993Z,15.18
2023-05-20T22:44:50.091Z,15.13
2023-05-20T22:47:16.719Z,15.11
2023-05-20T22:49:43.401Z,15.13
2023-05-20T22:52:10.223Z,15.08
2023-05-20T22:54:36.848Z,15.06
2023-05-20T22:57:03.675Z,14.96
2023-05-20T22:59:33.056Z,14.89
2023-05-20T23:01:59.760Z,14.78
2023-05-20T23:04:26.590Z,14.75
2023-05-20T23:06:57.872Z,14.77
2023-05-20T23:09:26.056Z,14.73
2023-05-20T23:11:52.766Z,14.66
2023-05-20T23:14:20.112Z,14.58
2023-05-20T23:16:47.020Z,14.55
2023-05-20T23:19:13.818Z,14.51
2023-05-20T23:21:40.720Z,14.46
2023-05-20T23:24:07.399Z,14.39
2023-05-20T23:26:34.651Z,14.40
2023-05-20T23:29:01.594Z,14.46
2023-05-20T23:31:30.182Z,14.43
2023-05-20T23:34:01.108Z,14.38
2023-05-20T23:36:29.203Z,14.32
2023-05-20T23:38:56.763Z,14.30
2023-05-20T23:41:23.799Z,14.28
2023-05-20T23:43:50.794Z,14.24
2023-05-20T23:46:18.612Z,14.22
2023-05-20T23:48:48.284Z,14.16
2023-05-20T23:51:16.430Z,14.11
2023-05-20T23:53:43.831Z,14.08
2023-05-20T23:56:10.559Z,14.01
2023-05-20T23:58:37.260Z,13.89
